sensor_id;sensor_type;location;lat;lon;timestamp;P1;durP1;ratioP1;P2;durP2;ratioP2
4210;SDS011;2119;48.828;12.396;2022-09-03T00:00:36;4.23;;;3.93;;
4210;SDS011;2119;48.828;12.396;2022-09-03T00:05:42;4.27;;;4.07;;
4210;SDS011;2119;48.828;12.396;2022-09-03T00:11:20;3.93;;;3.73;;
4210;SDS011;2119;48.828;12.396;2022-09-03T00:16:13;4.30;;;4.00;;
4210;SDS011;2119;48.828;12.396;2022-09-03T00:21:16;4.63;;;4.23;;
4210;SDS011;2119;48.828;12.396;2022-09-03T00:26:23;3.30;;;3.10;;
4210;SDS011;2119;48.828;12.396;2022-09-03T00:31:28;3.53;;;3.33;;
4210;SDS011;2119;48.828;12.396;2022-09-03T00:47:08;3.87;;;3.40;;
4210;SDS011;2119;48.828;12.396;2022-09-03T01:02:41;3.37;;;3.17;;
4210;SDS011;2119;48.828;12.396;2022-09-03T01:07:58;3.43;;;3.23;;
4210;SDS011;2119;48.828;12.396;2022-09-03T01:13:06;3.67;;;3.47;;
4210;SDS011;2119;48.828;12.396;2022-09-03T01:18:21;3.13;;;2.93;;
4210;SDS011;2119;48.828;12.396;2022-09-03T01:28:55;3.60;;;3.30;;
4210;SDS011;2119;48.828;12.396;2022-09-03T01:38:59;3.33;;;3.07;;
4210;SDS011;2119;48.828;12.396;2022-09-03T01:49:23;3.53;;;3.27;;
4210;SDS011;2119;48.828;12.396;2022-09-03T02:04:27;3.50;;;3.30;;
4210;SDS011;2119;48.828;12.396;2022-09-03T02:09:28;3.10;;;2.90;;
4210;SDS011;2119;48.828;12.396;2022-09-03T02:14:28;3.70;;;3.50;;
4210;SDS011;2119;48.828;12.396;2022-09-03T02:19:29;3.40;;;3.20;;
4210;SDS011;2119;48.828;12.396;2022-09-03T02:24:31;3.50;;;3.20;;
4210;SDS011;2119;48.828;12.396;2022-09-03T02:29:32;3.67;;;3.33;;
4210;SDS011;2119;48.828;12.396;2022-09-03T02:34:33;2.97;;;2.77;;
4210;SDS011;2119;48.828;12.396;2022-09-03T02:39:33;3.80;;;3.43;;
4210;SDS011;2119;48.828;12.396;2022-09-03T02:44:35;4.30;;;3.30;;
4210;SDS011;2119;48.828;12.396;2022-09-03T02:49:37;3.90;;;3.60;;
4210;SDS011;2119;48.828;12.396;2022-09-03T02:54:38;3.60;;;3.40;;
4210;SDS011;2119;48.828;12.396;2022-09-03T02:59:39;4.17;;;3.87;;
4210;SDS011;2119;48.828;12.396;2022-09-03T03:04:40;3.90;;;3.60;;
4210;SDS011;2119;48.828;12.396;2022-09-03T03:09:40;3.75;;;3.40;;
4210;SDS011;2119;48.828;12.396;2022-09-03T03:14:41;3.58;;;3.38;;
4210;SDS011;2119;48.828;12.396;2022-09-03T03:19:41;3.73;;;3.53;;
4210;SDS011;2119;48.828;12.396;2022-09-03T03:24:41;4.10;;;3.80;;
4210;SDS011;2119;48.828;12.396;2022-09-03T03:29:41;3.30;;;3.10;;
4210;SDS011;2119;48.828;12.396;2022-09-03T03:34:42;3.37;;;3.17;;
4210;SDS011;2119;48.828;12.396;2022-09-03T03:39:42;4.28;;;3.63;;
4210;SDS011;2119;48.828;12.396;2022-09-03T03:44:42;3.95;;;3.40;;
4210;SDS011;2119;48.828;12.396;2022-09-03T03:49:43;4.20;;;4.00;;
4210;SDS011;2119;48.828;12.396;2022-09-03T03:54:45;4.33;;;3.93;;
4210;SDS011;2119;48.828;12.396;2022-09-03T03:59:45;3.67;;;3.47;;
4210;SDS011;2119;48.828;12.396;2022-09-03T04:04:46;4.13;;;3.70;;
4210;SDS011;2119;48.828;12.396;2022-09-03T04:09:46;4.13;;;3.78;;
4210;SDS011;2119;48.828;12.396;2022-09-03T04:14:46;3.97;;;3.78;;
4210;SDS011;2119;48.828;12.396;2022-09-03T04:19:47;6.67;;;3.87;;
4210;SDS011;2119;48.828;12.396;2022-09-03T04:24:48;4.73;;;3.63;;
4210;SDS011;2119;48.828;12.396;2022-09-03T04:29:48;4.18;;;3.97;;
4210;SDS011;2119;48.828;12.396;2022-09-03T04:34:49;4.27;;;3.97;;
4210;SDS011;2119;48.828;12.396;2022-09-03T04:39:49;3.80;;;3.60;;
4210;SDS011;2119;48.828;12.396;2022-09-03T04:44:49;4.57;;;4.28;;
4210;SDS011;2119;48.828;12.396;2022-09-03T04:49:49;4.55;;;4.25;;
4210;SDS011;2119;48.828;12.396;2022-09-03T04:54:49;4.30;;;3.90;;
4210;SDS011;2119;48.828;12.396;2022-09-03T04:59:50;3.80;;;3.50;;
4210;SDS011;2119;48.828;12.396;2022-09-03T05:04:50;4.67;;;4.27;;
4210;SDS011;2119;48.828;12.396;2022-09-03T05:09:51;4.10;;;3.80;;
4210;SDS011;2119;48.828;12.396;2022-09-03T05:14:53;3.67;;;3.42;;
4210;SDS011;2119;48.828;12.396;2022-09-03T05:19:53;6.30;;;3.80;;
4210;SDS011;2119;48.828;12.396;2022-09-03T05:24:53;3.60;;;3.40;;
4210;SDS011;2119;48.828;12.396;2022-09-03T05:29:55;3.77;;;3.47;;
4210;SDS011;2119;48.828;12.396;2022-09-03T05:34:55;4.17;;;3.83;;
4210;SDS011;2119;48.828;12.396;2022-09-03T05:39:55;3.97;;;3.78;;
4210;SDS011;2119;48.828;12.396;2022-09-03T05:44:55;4.78;;;4.38;;
4210;SDS011;2119;48.828;12.396;2022-09-03T05:49:56;3.70;;;3.50;;
4210;SDS011;2119;48.828;12.396;2022-09-03T05:54:56;3.77;;;3.57;;
4210;SDS011;2119;48.828;12.396;2022-09-03T05:59:56;5.15;;;4.75;;
4210;SDS011;2119;48.828;12.396;2022-09-03T06:04:57;4.75;;;4.45;;
4210;SDS011;2119;48.828;12.396;2022-09-03T06:09:57;5.80;;;5.30;;
4210;SDS011;2119;48.828;12.396;2022-09-03T06:14:58;4.80;;;4.50;;
4210;SDS011;2119;48.828;12.396;2022-09-03T06:19:59;5.33;;;5.03;;
4210;SDS011;2119;48.828;12.396;2022-09-03T06:24:59;5.20;;;4.75;;
4210;SDS011;2119;48.828;12.396;2022-09-03T06:35:07;4.83;;;4.53;;
4210;SDS011;2119;48.828;12.396;2022-09-03T06:40:23;5.20;;;4.70;;
4210;SDS011;2119;48.828;12.396;2022-09-03T06:45:31;5.00;;;4.57;;
4210;SDS011;2119;48.828;12.396;2022-09-03T06:50:39;4.77;;;4.47;;
4210;SDS011;2119;48.828;12.396;2022-09-03T06:55:39;5.77;;;4.60;;
4210;SDS011;2119;48.828;12.396;2022-09-03T07:00:42;4.70;;;4.40;;
4210;SDS011;2119;48.828;12.396;2022-09-03T07:05:43;4.30;;;4.00;;
4210;SDS011;2119;48.828;12.396;2022-09-03T07:10:46;4.78;;;4.47;;
4210;SDS011;2119;48.828;12.396;2022-09-03T07:16:00;4.60;;;4.40;;
4210;SDS011;2119;48.828;12.396;2022-09-03T07:21:04;4.30;;;4.00;;
4210;SDS011;2119;48.828;12.396;2022-09-03T07:26:05;5.63;;;3.03;;
4210;SDS011;2119;48.828;12.396;2022-09-03T07:36:26;2.87;;;2.67;;
4210;SDS011;2119;48.828;12.396;2022-09-03T07:41:33;2.83;;;2.13;;
4210;SDS011;2119;48.828;12.396;2022-09-03T07:46:44;3.60;;;3.30;;
4210;SDS011;2119;48.828;12.396;2022-09-03T07:51:47;2.97;;;2.77;;
4210;SDS011;2119;48.828;12.396;2022-09-03T07:56:53;2.67;;;2.10;;
4210;SDS011;2119;48.828;12.396;2022-09-03T08:01:54;5.40;;;2.63;;
4210;SDS011;2119;48.828;12.396;2022-09-03T08:06:56;2.50;;;2.40;;
4210;SDS011;2119;48.828;12.396;2022-09-03T08:12:01;3.27;;;2.53;;
4210;SDS011;2119;48.828;12.396;2022-09-03T08:17:09;2.90;;;2.70;;
4210;SDS011;2119;48.828;12.396;2022-09-03T08:22:12;2.40;;;2.20;;
4210;SDS011;2119;48.828;12.396;2022-09-03T08:27:12;2.60;;;2.40;;
4210;SDS011;2119;48.828;12.396;2022-09-03T08:32:21;2.40;;;2.20;;
4210;SDS011;2119;48.828;12.396;2022-09-03T08:37:21;2.57;;;2.13;;
4210;SDS011;2119;48.828;12.396;2022-09-03T08:47:45;2.77;;;2.57;;
4210;SDS011;2119;48.828;12.396;2022-09-03T08:58:05;2.70;;;2.50;;
4210;SDS011;2119;48.828;12.396;2022-09-03T09:08:31;3.00;;;2.80;;
4210;SDS011;2119;48.828;12.396;2022-09-03T09:13:40;2.70;;;2.50;;
4210;SDS011;2119;48.828;12.396;2022-09-03T09:18:55;2.80;;;2.60;;
4210;SDS011;2119;48.828;12.396;2022-09-03T09:24:01;2.63;;;2.43;;
4210;SDS011;2119;48.828;12.396;2022-09-03T09:29:04;2.50;;;2.40;;
4210;SDS011;2119;48.828;12.396;2022-09-03T09:34:14;2.60;;;2.50;;
4210;SDS011;2119;48.828;12.396;2022-09-03T09:39:23;2.80;;;2.60;;
4210;SDS011;2119;48.828;12.396;2022-09-03T09:44:36;4.70;;;2.80;;
4210;SDS011;2119;48.828;12.396;2022-09-03T09:49:53;2.83;;;2.63;;
4210;SDS011;2119;48.828;12.396;2022-09-03T09:55:08;2.67;;;2.47;;
4210;SDS011;2119;48.828;12.396;2022-09-03T10:10:26;2.30;;;2.20;;
4210;SDS011;2119;48.828;12.396;2022-09-03T10:20:53;3.67;;;2.43;;
4210;SDS011;2119;48.828;12.396;2022-09-03T10:26:03;2.43;;;2.30;;
4210;SDS011;2119;48.828;12.396;2022-09-03T10:31:23;2.77;;;2.57;;
4210;SDS011;2119;48.828;12.396;2022-09-03T10:57:18;2.80;;;2.60;;
4210;SDS011;2119;48.828;12.396;2022-09-03T11:02:38;3.10;;;2.63;;
4210;SDS011;2119;48.828;12.396;2022-09-03T11:07:47;7.03;;;2.87;;
4210;SDS011;2119;48.828;12.396;2022-09-03T11:12:54;2.27;;;2.17;;
4210;SDS011;2119;48.828;12.396;2022-09-03T11:23:03;6.30;;;3.43;;
4210;SDS011;2119;48.828;12.396;2022-09-03T11:28:47;3.80;;;2.83;;
4210;SDS011;2119;48.828;12.396;2022-09-03T11:33:28;2.90;;;2.70;;
4210;SDS011;2119;48.828;12.396;2022-09-03T11:38:29;3.10;;;2.90;;
4210;SDS011;2119;48.828;12.396;2022-09-03T11:43:32;2.90;;;2.70;;
4210;SDS011;2119;48.828;12.396;2022-09-03T11:48:35;3.73;;;3.43;;
4210;SDS011;2119;48.828;12.396;2022-09-03T11:53:36;5.70;;;3.33;;
4210;SDS011;2119;48.828;12.396;2022-09-03T11:58:37;3.30;;;3.10;;
4210;SDS011;2119;48.828;12.396;2022-09-03T12:19:10;4.73;;;3.97;;
4210;SDS011;2119;48.828;12.396;2022-09-03T12:24:12;3.47;;;3.27;;
4210;SDS011;2119;48.828;12.396;2022-09-03T12:29:26;3.47;;;3.27;;
4210;SDS011;2119;48.828;12.396;2022-09-03T12:34:26;3.00;;;2.80;;
4210;SDS011;2119;48.828;12.396;2022-09-03T12:39:30;3.63;;;3.33;;
4210;SDS011;2119;48.828;12.396;2022-09-03T12:44:31;3.70;;;3.50;;
4210;SDS011;2119;48.828;12.396;2022-09-03T12:49:37;3.30;;;3.10;;
4210;SDS011;2119;48.828;12.396;2022-09-03T12:54:50;3.50;;;3.20;;
4210;SDS011;2119;48.828;12.396;2022-09-03T12:59:52;4.27;;;3.20;;
4210;SDS011;2119;48.828;12.396;2022-09-03T13:04:53;3.30;;;3.10;;
4210;SDS011;2119;48.828;12.396;2022-09-03T13:09:57;4.17;;;3.87;;
4210;SDS011;2119;48.828;12.396;2022-09-03T13:15:07;2.77;;;2.67;;
4210;SDS011;2119;48.828;12.396;2022-09-03T13:25:45;3.67;;;3.40;;
4210;SDS011;2119;48.828;12.396;2022-09-03T13:51:26;3.40;;;3.10;;
4210;SDS011;2119;48.828;12.396;2022-09-03T14:07:07;3.93;;;3.23;;
4210;SDS011;2119;48.828;12.396;2022-09-03T14:12:14;3.70;;;3.50;;
4210;SDS011;2119;48.828;12.396;2022-09-03T14:27:26;3.80;;;3.50;;
4210;SDS011;2119;48.828;12.396;2022-09-03T14:33:04;4.13;;;3.83;;
4210;SDS011;2119;48.828;12.396;2022-09-03T14:43:13;4.10;;;3.90;;
4210;SDS011;2119;48.828;12.396;2022-09-03T14:48:35;4.47;;;4.17;;
4210;SDS011;2119;48.828;12.396;2022-09-03T15:15:03;4.03;;;3.83;;
4210;SDS011;2119;48.828;12.396;2022-09-03T15:25:18;4.30;;;4.10;;
4210;SDS011;2119;48.828;12.396;2022-09-03T15:30:21;3.83;;;3.63;;
4210;SDS011;2119;48.828;12.396;2022-09-03T15:45:57;3.73;;;3.53;;
4210;SDS011;2119;48.828;12.396;2022-09-03T15:51:04;3.83;;;3.63;;
4210;SDS011;2119;48.828;12.396;2022-09-03T16:01:10;3.20;;;3.00;;
4210;SDS011;2119;48.828;12.396;2022-09-03T16:06:32;3.87;;;3.60;;
4210;SDS011;2119;48.828;12.396;2022-09-03T16:11:58;3.70;;;3.50;;
4210;SDS011;2119;48.828;12.396;2022-09-03T16:17:05;3.83;;;3.53;;
4210;SDS011;2119;48.828;12.396;2022-09-03T16:22:27;3.80;;;3.60;;
4210;SDS011;2119;48.828;12.396;2022-09-03T16:27:32;5.40;;;5.10;;
4210;SDS011;2119;48.828;12.396;2022-09-03T16:32:50;7.10;;;6.60;;
4210;SDS011;2119;48.828;12.396;2022-09-03T16:43:15;6.43;;;5.90;;
4210;SDS011;2119;48.828;12.396;2022-09-03T16:48:28;4.90;;;4.60;;
4210;SDS011;2119;48.828;12.396;2022-09-03T17:19:50;8.93;;;5.40;;
4210;SDS011;2119;48.828;12.396;2022-09-03T17:24:53;5.10;;;4.80;;
4210;SDS011;2119;48.828;12.396;2022-09-03T17:30:04;5.50;;;5.10;;
4210;SDS011;2119;48.828;12.396;2022-09-03T17:35:07;5.37;;;5.07;;
4210;SDS011;2119;48.828;12.396;2022-09-03T17:45:13;6.90;;;6.40;;
4210;SDS011;2119;48.828;12.396;2022-09-03T17:55:28;5.60;;;5.30;;
4210;SDS011;2119;48.828;12.396;2022-09-03T18:00:32;5.67;;;5.00;;
4210;SDS011;2119;48.828;12.396;2022-09-03T18:05:43;5.47;;;5.07;;
4210;SDS011;2119;48.828;12.396;2022-09-03T18:11:06;5.80;;;5.30;;
4210;SDS011;2119;48.828;12.396;2022-09-03T18:16:13;5.90;;;5.60;;
4210;SDS011;2119;48.828;12.396;2022-09-03T18:21:22;6.80;;;6.20;;
4210;SDS011;2119;48.828;12.396;2022-09-03T18:26:48;6.20;;;5.90;;
4210;SDS011;2119;48.828;12.396;2022-09-03T18:32:08;6.67;;;6.00;;
4210;SDS011;2119;48.828;12.396;2022-09-03T18:37:27;6.13;;;5.63;;
4210;SDS011;2119;48.828;12.396;2022-09-03T18:42:57;6.20;;;5.73;;
4210;SDS011;2119;48.828;12.396;2022-09-03T18:48:28;6.80;;;6.40;;
4210;SDS011;2119;48.828;12.396;2022-09-03T19:05:16;6.80;;;6.40;;
4210;SDS011;2119;48.828;12.396;2022-09-03T19:16:10;6.53;;;6.23;;
4210;SDS011;2119;48.828;12.396;2022-09-03T19:21:42;5.73;;;5.23;;
4210;SDS011;2119;48.828;12.396;2022-09-03T19:27:07;5.70;;;5.30;;
4210;SDS011;2119;48.828;12.396;2022-09-03T19:32:51;5.60;;;5.20;;
4210;SDS011;2119;48.828;12.396;2022-09-03T19:43:37;4.10;;;3.80;;
4210;SDS011;2119;48.828;12.396;2022-09-03T19:54:39;3.40;;;3.20;;
4210;SDS011;2119;48.828;12.396;2022-09-03T19:59:58;4.50;;;4.20;;
4210;SDS011;2119;48.828;12.396;2022-09-03T20:05:21;4.17;;;3.87;;
4210;SDS011;2119;48.828;12.396;2022-09-03T20:10:40;5.80;;;3.63;;
4210;SDS011;2119;48.828;12.396;2022-09-03T20:21:09;3.30;;;3.00;;
4210;SDS011;2119;48.828;12.396;2022-09-03T20:51:39;2.70;;;2.50;;
4210;SDS011;2119;48.828;12.396;2022-09-03T21:01:58;3.37;;;2.80;;
4210;SDS011;2119;48.828;12.396;2022-09-03T21:07:07;3.10;;;2.80;;
4210;SDS011;2119;48.828;12.396;2022-09-03T21:12:16;3.30;;;3.10;;
4210;SDS011;2119;48.828;12.396;2022-09-03T21:28:08;8.20;;;2.80;;
4210;SDS011;2119;48.828;12.396;2022-09-03T21:33:12;3.00;;;2.80;;
4210;SDS011;2119;48.828;12.396;2022-09-03T21:38:16;2.67;;;2.47;;
4210;SDS011;2119;48.828;12.396;2022-09-03T21:43:23;3.10;;;2.90;;
4210;SDS011;2119;48.828;12.396;2022-09-03T21:48:28;4.07;;;3.30;;
4210;SDS011;2119;48.828;12.396;2022-09-03T21:53:39;5.83;;;4.37;;
4210;SDS011;2119;48.828;12.396;2022-09-03T22:03:46;3.03;;;2.70;;
4210;SDS011;2119;48.828;12.396;2022-09-03T22:08:49;9.50;;;5.87;;
4210;SDS011;2119;48.828;12.396;2022-09-03T22:14:09;4.73;;;3.87;;
4210;SDS011;2119;48.828;12.396;2022-09-03T22:19:10;3.07;;;2.77;;
4210;SDS011;2119;48.828;12.396;2022-09-03T22:30:18;5.80;;;4.27;;
4210;SDS011;2119;48.828;12.396;2022-09-03T22:40:24;3.77;;;3.47;;
4210;SDS011;2119;48.828;12.396;2022-09-03T22:55:45;3.00;;;2.80;;
4210;SDS011;2119;48.828;12.396;2022-09-03T23:00:50;4.13;;;2.70;;
4210;SDS011;2119;48.828;12.396;2022-09-03T23:05:58;3.30;;;3.10;;
4210;SDS011;2119;48.828;12.396;2022-09-03T23:16:38;3.40;;;3.20;;
4210;SDS011;2119;48.828;12.396;2022-09-03T23:21:40;3.20;;;3.00;;
4210;SDS011;2119;48.828;12.396;2022-09-03T23:31:42;3.80;;;3.33;;
4210;SDS011;2119;48.828;12.396;2022-09-03T23:47:45;4.70;;;4.33;;
4210;SDS011;2119;48.828;12.396;2022-09-03T23:52:46;3.57;;;3.37;;
